Pagina principală
METAR-TAF:

METAR-TAF

Aeroporturi :

Pago Pago, Insulele Minore Îndepărtate ale Statelor Unite

Latitudine: 14-20S, longitudine: 170-43W, elevație: 3 m

Observații meteo curente

Raportul a fost făcut în urmă cu 17 de minute, la 12:50 UTC
Vânt calm
Temperatură 27°C
Umiditate 79%
Presiune 1010 hPa
Vizibilitate: 16.1 km
Nori puțini la o înălțime de 2000 picior
Nori împrăștiați la o înălțime de 10000 picior

METAR: NSTU 281250Z 00000KT 10SM FEW020 SCT100 27/23 A2983 RMK SLP103 T02680233

Ora: 02:07 (13:07 UTC)

Prognoză

Raportul a fost făcut în urmă cu 1 oră și 42 de minute, la 11:25 UTC
Prognoză valabilă de la 28 ora 12 UTC la 29 ora 12 UTC
Vânt 5 kt din direcții variabile
Vizibilitate: 10 km
Nori împrăștiați la o înălțime de 2000 picior
Nori împrăștiați la o înălțime de 4000 picior
Nori împrăștiați la o înălțime de 10000 picior

TAF: NSTU 281125Z 2812/2912 VRB05KT P6SM SCT020 SCT040 SCT100

Observații și prognoze meteo pentru peste 4.000 de aeroporturi (rapoarte METAR și TAF).

Stațiile disponibile sunt reprezentate pe hartă prin puncte galbene și roșii.

Țineți indicatorul mouse-ului pe punctul dorit pentru a vedea denumirea stației.

Apoi, faceți clic pentru a vedea observațiile și prognozele meteorologice.

Pentru a schimba harta: Pentru mărire, faceți clic pe butoanele verzi cu cruce neagră; pentru micșorare, pe butonul verde cu o liniuță; pentru hărți învecinate, pe săgețile verzi.


METAR-TAF: